sensor_id;sensor_type;location;lat;lon;timestamp;temperature;humidity
10233;DHT22;5161;48.174;11.756;2023-04-06T00:00:50;4.30;45.10
10233;DHT22;5161;48.174;11.756;2023-04-06T00:03:16;4.30;45.00
10233;DHT22;5161;48.174;11.756;2023-04-06T00:05:42;4.30;45.10
10233;DHT22;5161;48.174;11.756;2023-04-06T00:08:07;4.30;45.00
10233;DHT22;5161;48.174;11.756;2023-04-06T00:10:33;4.30;45.10
10233;DHT22;5161;48.174;11.756;2023-04-06T00:12:59;4.20;45.00
10233;DHT22;5161;48.174;11.756;2023-04-06T00:15:25;4.20;45.10
10233;DHT22;5161;48.174;11.756;2023-04-06T00:17:51;4.20;45.10
10233;DHT22;5161;48.174;11.756;2023-04-06T00:20:17;4.20;45.10
10233;DHT22;5161;48.174;11.756;2023-04-06T00:22:43;4.20;45.10
10233;DHT22;5161;48.174;11.756;2023-04-06T00:25:09;4.20;45.00
10233;DHT22;5161;48.174;11.756;2023-04-06T00:27:36;4.10;45.10
10233;DHT22;5161;48.174;11.756;2023-04-06T00:30:06;4.10;45.20
10233;DHT22;5161;48.174;11.756;2023-04-06T00:32:32;4.00;44.60
10233;DHT22;5161;48.174;11.756;2023-04-06T00:34:58;4.00;45.00
10233;DHT22;5161;48.174;11.756;2023-04-06T00:37:24;3.90;44.60
10233;DHT22;5161;48.174;11.756;2023-04-06T00:39:49;3.90;44.80
10233;DHT22;5161;48.174;11.756;2023-04-06T00:42:17;3.90;44.80
10233;DHT22;5161;48.174;11.756;2023-04-06T00:44:43;3.80;44.70
10233;DHT22;5161;48.174;11.756;2023-04-06T00:47:09;3.80;44.90
10233;DHT22;5161;48.174;11.756;2023-04-06T00:49:35;3.70;45.00
10233;DHT22;5161;48.174;11.756;2023-04-06T00:52:01;3.70;45.10
10233;DHT22;5161;48.174;11.756;2023-04-06T00:54:30;3.70;45.10
10233;DHT22;5161;48.174;11.756;2023-04-06T00:56:56;3.70;45.20
10233;DHT22;5161;48.174;11.756;2023-04-06T00:59:22;3.70;45.30
10233;DHT22;5161;48.174;11.756;2023-04-06T01:01:48;3.60;45.70
10233;DHT22;5161;48.174;11.756;2023-04-06T01:04:13;3.60;45.30
10233;DHT22;5161;48.174;11.756;2023-04-06T01:06:39;3.60;45.80
10233;DHT22;5161;48.174;11.756;2023-04-06T01:09:06;3.60;45.40
10233;DHT22;5161;48.174;11.756;2023-04-06T01:11:31;3.50;45.40
10233;DHT22;5161;48.174;11.756;2023-04-06T01:13:57;3.50;45.50
10233;DHT22;5161;48.174;11.756;2023-04-06T01:16:24;3.50;45.50
10233;DHT22;5161;48.174;11.756;2023-04-06T01:18:49;3.40;45.50
10233;DHT22;5161;48.174;11.756;2023-04-06T01:21:15;3.40;45.60
10233;DHT22;5161;48.174;11.756;2023-04-06T01:23:43;3.40;45.70
10233;DHT22;5161;48.174;11.756;2023-04-06T01:26:10;3.30;45.70
10233;DHT22;5161;48.174;11.756;2023-04-06T01:28:35;3.30;45.60
10233;DHT22;5161;48.174;11.756;2023-04-06T01:31:03;3.30;45.70
10233;DHT22;5161;48.174;11.756;2023-04-06T01:33:28;3.30;45.80
10233;DHT22;5161;48.174;11.756;2023-04-06T01:35:54;3.20;45.80
10233;DHT22;5161;48.174;11.756;2023-04-06T01:38:20;3.30;45.90
10233;DHT22;5161;48.174;11.756;2023-04-06T01:40:46;3.30;46.00
10233;DHT22;5161;48.174;11.756;2023-04-06T01:43:11;3.30;45.90
10233;DHT22;5161;48.174;11.756;2023-04-06T01:45:37;3.30;46.00
10233;DHT22;5161;48.174;11.756;2023-04-06T01:48:03;3.30;46.00
10233;DHT22;5161;48.174;11.756;2023-04-06T01:50:29;3.30;46.10
10233;DHT22;5161;48.174;11.756;2023-04-06T01:52:54;3.20;46.00
10233;DHT22;5161;48.174;11.756;2023-04-06T01:55:20;3.30;46.40
10233;DHT22;5161;48.174;11.756;2023-04-06T01:57:46;3.20;46.20
10233;DHT22;5161;48.174;11.756;2023-04-06T02:00:12;3.20;46.20
10233;DHT22;5161;48.174;11.756;2023-04-06T02:02:38;3.10;46.20
10233;DHT22;5161;48.174;11.756;2023-04-06T02:05:04;3.10;46.30
10233;DHT22;5161;48.174;11.756;2023-04-06T02:07:30;3.10;46.40
10233;DHT22;5161;48.174;11.756;2023-04-06T02:09:55;3.10;46.40
10233;DHT22;5161;48.174;11.756;2023-04-06T02:12:21;3.10;46.40
10233;DHT22;5161;48.174;11.756;2023-04-06T02:14:47;3.10;46.40
10233;DHT22;5161;48.174;11.756;2023-04-06T02:17:12;3.10;46.50
10233;DHT22;5161;48.174;11.756;2023-04-06T02:19:38;3.10;46.50
10233;DHT22;5161;48.174;11.756;2023-04-06T02:22:03;3.20;46.60
10233;DHT22;5161;48.174;11.756;2023-04-06T02:24:29;3.20;46.60
10233;DHT22;5161;48.174;11.756;2023-04-06T02:26:55;3.20;47.00
10233;DHT22;5161;48.174;11.756;2023-04-06T02:29:20;3.20;46.40
10233;DHT22;5161;48.174;11.756;2023-04-06T02:31:46;3.10;46.50
10233;DHT22;5161;48.174;11.756;2023-04-06T02:34:12;3.10;46.40
10233;DHT22;5161;48.174;11.756;2023-04-06T02:36:45;3.10;46.50
10233;DHT22;5161;48.174;11.756;2023-04-06T02:39:11;3.10;46.80
10233;DHT22;5161;48.174;11.756;2023-04-06T02:41:38;3.10;46.60
10233;DHT22;5161;48.174;11.756;2023-04-06T02:44:05;3.00;46.60
10233;DHT22;5161;48.174;11.756;2023-04-06T02:46:31;3.00;46.70
10233;DHT22;5161;48.174;11.756;2023-04-06T02:48:57;2.90;46.70
10233;DHT22;5161;48.174;11.756;2023-04-06T02:51:25;2.90;46.60
10233;DHT22;5161;48.174;11.756;2023-04-06T02:53:51;2.90;46.80
10233;DHT22;5161;48.174;11.756;2023-04-06T02:56:17;2.90;46.70
10233;DHT22;5161;48.174;11.756;2023-04-06T02:58:42;2.90;46.80
10233;DHT22;5161;48.174;11.756;2023-04-06T03:01:08;2.90;46.80
10233;DHT22;5161;48.174;11.756;2023-04-06T03:03:34;2.90;46.80
10233;DHT22;5161;48.174;11.756;2023-04-06T03:05:59;2.80;46.90
10233;DHT22;5161;48.174;11.756;2023-04-06T03:08:25;2.80;46.90
10233;DHT22;5161;48.174;11.756;2023-04-06T03:10:51;2.80;46.90
10233;DHT22;5161;48.174;11.756;2023-04-06T03:13:16;2.80;46.90
10233;DHT22;5161;48.174;11.756;2023-04-06T03:15:42;2.80;46.80
10233;DHT22;5161;48.174;11.756;2023-04-06T03:18:08;2.70;46.80
10233;DHT22;5161;48.174;11.756;2023-04-06T03:20:33;2.70;46.90
10233;DHT22;5161;48.174;11.756;2023-04-06T03:22:59;2.70;47.10
10233;DHT22;5161;48.174;11.756;2023-04-06T03:25:25;2.80;47.10
10233;DHT22;5161;48.174;11.756;2023-04-06T03:27:50;2.70;47.10
10233;DHT22;5161;48.174;11.756;2023-04-06T03:30:17;2.70;47.10
10233;DHT22;5161;48.174;11.756;2023-04-06T03:32:43;2.70;47.10
10233;DHT22;5161;48.174;11.756;2023-04-06T03:35:09;2.60;47.20
10233;DHT22;5161;48.174;11.756;2023-04-06T03:37:35;2.60;47.20
10233;DHT22;5161;48.174;11.756;2023-04-06T03:40:01;2.70;47.20
10233;DHT22;5161;48.174;11.756;2023-04-06T03:42:27;2.60;47.30
10233;DHT22;5161;48.174;11.756;2023-04-06T03:44:52;2.50;47.20
10233;DHT22;5161;48.174;11.756;2023-04-06T03:47:18;2.50;47.30
10233;DHT22;5161;48.174;11.756;2023-04-06T03:49:43;2.40;47.20
10233;DHT22;5161;48.174;11.756;2023-04-06T03:52:09;2.40;47.30
10233;DHT22;5161;48.174;11.756;2023-04-06T03:54:35;2.40;47.30
10233;DHT22;5161;48.174;11.756;2023-04-06T03:57:01;2.40;47.30
10233;DHT22;5161;48.174;11.756;2023-04-06T03:59:27;2.40;47.40
10233;DHT22;5161;48.174;11.756;2023-04-06T04:01:53;2.40;47.40
10233;DHT22;5161;48.174;11.756;2023-04-06T04:04:18;2.40;47.50
10233;DHT22;5161;48.174;11.756;2023-04-06T04:06:44;2.40;47.30
10233;DHT22;5161;48.174;11.756;2023-04-06T04:09:10;2.40;47.40
10233;DHT22;5161;48.174;11.756;2023-04-06T04:11:36;2.30;47.30
10233;DHT22;5161;48.174;11.756;2023-04-06T04:14:01;2.30;47.40
10233;DHT22;5161;48.174;11.756;2023-04-06T04:16:27;2.30;47.50
10233;DHT22;5161;48.174;11.756;2023-04-06T04:18:53;2.30;47.50
10233;DHT22;5161;48.174;11.756;2023-04-06T04:21:18;2.30;47.50
10233;DHT22;5161;48.174;11.756;2023-04-06T04:23:44;2.30;47.60
10233;DHT22;5161;48.174;11.756;2023-04-06T04:26:10;2.20;47.60
10233;DHT22;5161;48.174;11.756;2023-04-06T04:28:35;2.20;47.60
10233;DHT22;5161;48.174;11.756;2023-04-06T04:31:01;2.20;47.60
10233;DHT22;5161;48.174;11.756;2023-04-06T04:33:27;2.20;47.70
10233;DHT22;5161;48.174;11.756;2023-04-06T04:35:52;2.20;47.80
10233;DHT22;5161;48.174;11.756;2023-04-06T04:38:18;2.20;47.90
10233;DHT22;5161;48.174;11.756;2023-04-06T04:40:43;2.30;47.80
10233;DHT22;5161;48.174;11.756;2023-04-06T04:43:09;2.30;47.90
10233;DHT22;5161;48.174;11.756;2023-04-06T04:45:35;2.30;48.10
10233;DHT22;5161;48.174;11.756;2023-04-06T04:48:00;2.30;47.90
10233;DHT22;5161;48.174;11.756;2023-04-06T04:50:26;2.20;47.80
10233;DHT22;5161;48.174;11.756;2023-04-06T04:52:52;2.30;48.30
10233;DHT22;5161;48.174;11.756;2023-04-06T04:55:17;2.30;48.30
10233;DHT22;5161;48.174;11.756;2023-04-06T04:57:43;2.30;48.20
10233;DHT22;5161;48.174;11.756;2023-04-06T05:00:09;2.30;48.40
10233;DHT22;5161;48.174;11.756;2023-04-06T05:02:35;2.30;48.30
10233;DHT22;5161;48.174;11.756;2023-04-06T05:05:00;2.30;48.20
10233;DHT22;5161;48.174;11.756;2023-04-06T05:07:26;2.30;48.20
10233;DHT22;5161;48.174;11.756;2023-04-06T05:09:52;2.30;48.30
10233;DHT22;5161;48.174;11.756;2023-04-06T05:12:18;2.40;48.30
10233;DHT22;5161;48.174;11.756;2023-04-06T05:14:44;2.30;48.30
10233;DHT22;5161;48.174;11.756;2023-04-06T05:17:10;2.40;48.40
10233;DHT22;5161;48.174;11.756;2023-04-06T05:19:36;2.40;48.40
10233;DHT22;5161;48.174;11.756;2023-04-06T05:22:02;2.40;48.50
10233;DHT22;5161;48.174;11.756;2023-04-06T05:24:27;2.40;48.50
10233;DHT22;5161;48.174;11.756;2023-04-06T05:26:53;2.30;48.40
10233;DHT22;5161;48.174;11.756;2023-04-06T05:29:19;2.30;48.50
10233;DHT22;5161;48.174;11.756;2023-04-06T05:31:45;2.30;48.70
10233;DHT22;5161;48.174;11.756;2023-04-06T05:34:11;2.30;48.60
10233;DHT22;5161;48.174;11.756;2023-04-06T05:36:38;2.30;48.60
10233;DHT22;5161;48.174;11.756;2023-04-06T05:39:04;2.30;48.70
10233;DHT22;5161;48.174;11.756;2023-04-06T05:41:29;2.30;48.70
10233;DHT22;5161;48.174;11.756;2023-04-06T05:43:55;2.30;48.80
10233;DHT22;5161;48.174;11.756;2023-04-06T05:46:21;2.30;48.80
10233;DHT22;5161;48.174;11.756;2023-04-06T05:48:46;2.40;48.90
10233;DHT22;5161;48.174;11.756;2023-04-06T05:51:12;2.40;48.90
10233;DHT22;5161;48.174;11.756;2023-04-06T05:53:38;2.40;49.10
10233;DHT22;5161;48.174;11.756;2023-04-06T05:56:04;2.50;49.20
10233;DHT22;5161;48.174;11.756;2023-04-06T05:58:30;2.50;49.30
10233;DHT22;5161;48.174;11.756;2023-04-06T06:00:59;2.60;49.40
10233;DHT22;5161;48.174;11.756;2023-04-06T06:03:25;2.70;49.60
10233;DHT22;5161;48.174;11.756;2023-04-06T06:05:51;2.70;49.60
10233;DHT22;5161;48.174;11.756;2023-04-06T06:08:17;2.70;49.40
10233;DHT22;5161;48.174;11.756;2023-04-06T06:10:43;2.80;49.60
10233;DHT22;5161;48.174;11.756;2023-04-06T06:13:08;2.90;49.70
10233;DHT22;5161;48.174;11.756;2023-04-06T06:15:34;2.90;49.60
10233;DHT22;5161;48.174;11.756;2023-04-06T06:18:00;3.00;49.60
10233;DHT22;5161;48.174;11.756;2023-04-06T06:20:27;3.10;49.80
10233;DHT22;5161;48.174;11.756;2023-04-06T06:22:52;3.20;49.80
10233;DHT22;5161;48.174;11.756;2023-04-06T06:25:18;3.30;49.90
10233;DHT22;5161;48.174;11.756;2023-04-06T06:27:44;3.30;49.90
10233;DHT22;5161;48.174;11.756;2023-04-06T06:30:10;3.40;50.00
10233;DHT22;5161;48.174;11.756;2023-04-06T06:32:35;3.40;49.90
10233;DHT22;5161;48.174;11.756;2023-04-06T06:35:01;3.50;50.10
10233;DHT22;5161;48.174;11.756;2023-04-06T06:37:28;3.50;50.00
10233;DHT22;5161;48.174;11.756;2023-04-06T06:39:53;3.60;50.20
10233;DHT22;5161;48.174;11.756;2023-04-06T06:42:19;3.70;50.30
10233;DHT22;5161;48.174;11.756;2023-04-06T06:44:44;3.80;50.30
10233;DHT22;5161;48.174;11.756;2023-04-06T06:47:10;3.80;50.30
10233;DHT22;5161;48.174;11.756;2023-04-06T06:49:36;3.80;50.30
10233;DHT22;5161;48.174;11.756;2023-04-06T06:52:01;3.90;50.30
10233;DHT22;5161;48.174;11.756;2023-04-06T06:54:27;4.00;50.40
10233;DHT22;5161;48.174;11.756;2023-04-06T06:56:52;4.00;50.40
10233;DHT22;5161;48.174;11.756;2023-04-06T06:59:19;4.10;50.70
10233;DHT22;5161;48.174;11.756;2023-04-06T07:01:46;4.20;50.50
10233;DHT22;5161;48.174;11.756;2023-04-06T07:04:12;4.20;50.50
10233;DHT22;5161;48.174;11.756;2023-04-06T07:06:37;4.30;50.60
10233;DHT22;5161;48.174;11.756;2023-04-06T07:09:03;4.40;50.60
10233;DHT22;5161;48.174;11.756;2023-04-06T07:11:29;4.50;50.50
10233;DHT22;5161;48.174;11.756;2023-04-06T07:13:55;4.50;50.60
10233;DHT22;5161;48.174;11.756;2023-04-06T07:16:21;4.60;50.70
10233;DHT22;5161;48.174;11.756;2023-04-06T07:18:47;4.60;50.60
10233;DHT22;5161;48.174;11.756;2023-04-06T07:21:12;4.70;50.70
10233;DHT22;5161;48.174;11.756;2023-04-06T07:23:38;4.80;50.70
10233;DHT22;5161;48.174;11.756;2023-04-06T07:26:04;4.80;50.70
10233;DHT22;5161;48.174;11.756;2023-04-06T07:28:30;4.90;50.80
10233;DHT22;5161;48.174;11.756;2023-04-06T07:30:55;5.00;50.80
10233;DHT22;5161;48.174;11.756;2023-04-06T07:33:21;5.00;50.90
10233;DHT22;5161;48.174;11.756;2023-04-06T07:35:46;5.10;50.90
10233;DHT22;5161;48.174;11.756;2023-04-06T07:38:12;5.20;50.90
10233;DHT22;5161;48.174;11.756;2023-04-06T07:40:38;5.30;50.90
10233;DHT22;5161;48.174;11.756;2023-04-06T07:43:03;5.30;50.50
10233;DHT22;5161;48.174;11.756;2023-04-06T07:45:29;5.40;50.60
10233;DHT22;5161;48.174;11.756;2023-04-06T07:47:55;5.40;50.70
10233;DHT22;5161;48.174;11.756;2023-04-06T07:50:21;5.50;50.70
10233;DHT22;5161;48.174;11.756;2023-04-06T07:52:46;5.60;50.60
10233;DHT22;5161;48.174;11.756;2023-04-06T07:55:12;5.70;51.00
10233;DHT22;5161;48.174;11.756;2023-04-06T07:57:38;5.70;50.60
10233;DHT22;5161;48.174;11.756;2023-04-06T08:00:04;5.80;50.50
10233;DHT22;5161;48.174;11.756;2023-04-06T08:02:31;5.90;50.40
10233;DHT22;5161;48.174;11.756;2023-04-06T08:04:57;6.00;50.50
10233;DHT22;5161;48.174;11.756;2023-04-06T08:07:22;6.00;49.60
10233;DHT22;5161;48.174;11.756;2023-04-06T08:09:48;6.10;49.50
10233;DHT22;5161;48.174;11.756;2023-04-06T08:12:14;6.10;49.20
10233;DHT22;5161;48.174;11.756;2023-04-06T08:14:40;6.10;49.00
10233;DHT22;5161;48.174;11.756;2023-04-06T08:17:05;6.20;49.20
10233;DHT22;5161;48.174;11.756;2023-04-06T08:19:31;6.20;49.10
10233;DHT22;5161;48.174;11.756;2023-04-06T08:21:57;6.30;48.80
10233;DHT22;5161;48.174;11.756;2023-04-06T08:24:22;6.30;48.70
10233;DHT22;5161;48.174;11.756;2023-04-06T08:26:49;6.40;48.60
10233;DHT22;5161;48.174;11.756;2023-04-06T08:29:16;6.40;48.00
10233;DHT22;5161;48.174;11.756;2023-04-06T08:31:42;6.40;48.30
10233;DHT22;5161;48.174;11.756;2023-04-06T08:34:08;6.50;47.00
10233;DHT22;5161;48.174;11.756;2023-04-06T08:36:33;6.50;47.00
10233;DHT22;5161;48.174;11.756;2023-04-06T08:39:00;6.50;48.10
10233;DHT22;5161;48.174;11.756;2023-04-06T08:41:27;6.60;45.90
10233;DHT22;5161;48.174;11.756;2023-04-06T08:43:59;6.60;46.10
10233;DHT22;5161;48.174;11.756;2023-04-06T08:46:25;6.60;46.20
10233;DHT22;5161;48.174;11.756;2023-04-06T08:48:56;6.60;47.10
10233;DHT22;5161;48.174;11.756;2023-04-06T08:51:23;6.80;46.80
10233;DHT22;5161;48.174;11.756;2023-04-06T08:53:52;6.90;47.10
10233;DHT22;5161;48.174;11.756;2023-04-06T08:56:21;7.00;47.30
10233;DHT22;5161;48.174;11.756;2023-04-06T08:58:47;7.10;47.50
10233;DHT22;5161;48.174;11.756;2023-04-06T09:01:14;7.10;47.30
10233;DHT22;5161;48.174;11.756;2023-04-06T09:03:43;7.20;47.10
10233;DHT22;5161;48.174;11.756;2023-04-06T09:06:11;7.30;46.40
10233;DHT22;5161;48.174;11.756;2023-04-06T09:08:40;7.20;47.40
10233;DHT22;5161;48.174;11.756;2023-04-06T09:11:12;7.30;46.00
10233;DHT22;5161;48.174;11.756;2023-04-06T09:13:48;7.30;46.40
10233;DHT22;5161;48.174;11.756;2023-04-06T09:16:14;7.30;45.90
10233;DHT22;5161;48.174;11.756;2023-04-06T09:18:41;7.30;44.40
10233;DHT22;5161;48.174;11.756;2023-04-06T09:21:07;7.20;43.60
10233;DHT22;5161;48.174;11.756;2023-04-06T09:23:34;7.10;45.00
10233;DHT22;5161;48.174;11.756;2023-04-06T09:26:16;7.20;45.20
10233;DHT22;5161;48.174;11.756;2023-04-06T09:31:08;7.30;45.70
10233;DHT22;5161;48.174;11.756;2023-04-06T09:33:38;7.30;44.80
10233;DHT22;5161;48.174;11.756;2023-04-06T09:36:06;7.50;45.80
10233;DHT22;5161;48.174;11.756;2023-04-06T09:38:32;7.60;45.80
10233;DHT22;5161;48.174;11.756;2023-04-06T09:41:00;7.70;45.70
10233;DHT22;5161;48.174;11.756;2023-04-06T09:43:29;7.70;45.20
10233;DHT22;5161;48.174;11.756;2023-04-06T09:45:56;7.70;45.50
10233;DHT22;5161;48.174;11.756;2023-04-06T09:48:24;7.80;43.60
10233;DHT22;5161;48.174;11.756;2023-04-06T09:50:54;7.70;44.90
10233;DHT22;5161;48.174;11.756;2023-04-06T09:53:25;7.80;45.10
10233;DHT22;5161;48.174;11.756;2023-04-06T09:55:57;7.70;42.80
10233;DHT22;5161;48.174;11.756;2023-04-06T09:58:27;7.70;45.00
10233;DHT22;5161;48.174;11.756;2023-04-06T10:01:12;7.70;45.50
10233;DHT22;5161;48.174;11.756;2023-04-06T10:06:18;7.90;44.00
10233;DHT22;5161;48.174;11.756;2023-04-06T10:08:48;8.00;44.80
10233;DHT22;5161;48.174;11.756;2023-04-06T10:11:15;8.00;43.70
10233;DHT22;5161;48.174;11.756;2023-04-06T10:13:41;8.00;44.70
10233;DHT22;5161;48.174;11.756;2023-04-06T10:16:08;8.10;44.70
10233;DHT22;5161;48.174;11.756;2023-04-06T10:18:35;8.20;45.30
10233;DHT22;5161;48.174;11.756;2023-04-06T10:21:10;8.30;45.40
10233;DHT22;5161;48.174;11.756;2023-04-06T10:23:55;8.30;45.00
10233;DHT22;5161;48.174;11.756;2023-04-06T10:26:23;8.40;44.10
10233;DHT22;5161;48.174;11.756;2023-04-06T10:28:49;8.40;43.90
10233;DHT22;5161;48.174;11.756;2023-04-06T10:31:27;8.50;44.70
10233;DHT22;5161;48.174;11.756;2023-04-06T10:34:03;8.50;44.20
10233;DHT22;5161;48.174;11.756;2023-04-06T10:36:33;8.70;44.20
10233;DHT22;5161;48.174;11.756;2023-04-06T10:39:00;8.80;45.00
10233;DHT22;5161;48.174;11.756;2023-04-06T10:41:34;8.90;45.20
10233;DHT22;5161;48.174;11.756;2023-04-06T10:44:00;9.00;45.00
10233;DHT22;5161;48.174;11.756;2023-04-06T10:46:28;9.00;43.90
10233;DHT22;5161;48.174;11.756;2023-04-06T10:48:54;9.10;44.70
10233;DHT22;5161;48.174;11.756;2023-04-06T10:51:26;9.10;44.60
10233;DHT22;5161;48.174;11.756;2023-04-06T10:53:56;9.00;44.60
10233;DHT22;5161;48.174;11.756;2023-04-06T10:56:24;9.10;44.10
10233;DHT22;5161;48.174;11.756;2023-04-06T10:58:54;9.10;44.30
10233;DHT22;5161;48.174;11.756;2023-04-06T11:01:22;9.10;44.00
10233;DHT22;5161;48.174;11.756;2023-04-06T11:03:50;9.20;44.50
10233;DHT22;5161;48.174;11.756;2023-04-06T11:06:23;9.20;43.70
10233;DHT22;5161;48.174;11.756;2023-04-06T11:08:51;9.20;43.90
10233;DHT22;5161;48.174;11.756;2023-04-06T11:11:21;9.30;43.30
10233;DHT22;5161;48.174;11.756;2023-04-06T11:13:53;9.30;43.80
10233;DHT22;5161;48.174;11.756;2023-04-06T11:16:19;9.40;44.30
10233;DHT22;5161;48.174;11.756;2023-04-06T11:18:58;9.30;43.90
10233;DHT22;5161;48.174;11.756;2023-04-06T11:21:43;9.40;44.50
10233;DHT22;5161;48.174;11.756;2023-04-06T11:24:24;9.50;43.30
10233;DHT22;5161;48.174;11.756;2023-04-06T11:26:56;9.50;43.10
10233;DHT22;5161;48.174;11.756;2023-04-06T11:29:23;9.40;42.10
10233;DHT22;5161;48.174;11.756;2023-04-06T11:31:52;9.50;42.90
10233;DHT22;5161;48.174;11.756;2023-04-06T11:34:22;9.60;43.50
10233;DHT22;5161;48.174;11.756;2023-04-06T11:36:53;9.70;43.90
10233;DHT22;5161;48.174;11.756;2023-04-06T11:39:25;9.80;43.30
10233;DHT22;5161;48.174;11.756;2023-04-06T11:41:53;9.90;44.10
10233;DHT22;5161;48.174;11.756;2023-04-06T11:44:32;10.00;42.90
10233;DHT22;5161;48.174;11.756;2023-04-06T11:46:58;10.00;41.10
10233;DHT22;5161;48.174;11.756;2023-04-06T11:49:31;10.00;42.10
10233;DHT22;5161;48.174;11.756;2023-04-06T11:51:58;10.00;41.50
10233;DHT22;5161;48.174;11.756;2023-04-06T11:54:34;10.10;42.30
10233;DHT22;5161;48.174;11.756;2023-04-06T11:57:01;10.10;42.50
10233;DHT22;5161;48.174;11.756;2023-04-06T11:59:28;10.20;42.60
10233;DHT22;5161;48.174;11.756;2023-04-06T12:01:54;10.20;42.80
10233;DHT22;5161;48.174;11.756;2023-04-06T12:04:20;10.30;42.10
10233;DHT22;5161;48.174;11.756;2023-04-06T12:06:46;10.40;42.80
10233;DHT22;5161;48.174;11.756;2023-04-06T12:09:12;10.50;43.10
10233;DHT22;5161;48.174;11.756;2023-04-06T12:11:37;10.70;43.50
10233;DHT22;5161;48.174;11.756;2023-04-06T12:14:04;10.90;42.90
10233;DHT22;5161;48.174;11.756;2023-04-06T12:16:31;11.00;42.60
10233;DHT22;5161;48.174;11.756;2023-04-06T12:18:57;11.20;43.10
10233;DHT22;5161;48.174;11.756;2023-04-06T12:21:22;11.40;40.90
10233;DHT22;5161;48.174;11.756;2023-04-06T12:23:48;11.60;41.90
10233;DHT22;5161;48.174;11.756;2023-04-06T12:26:14;11.80;41.30
10233;DHT22;5161;48.174;11.756;2023-04-06T12:28:40;11.80;39.40
10233;DHT22;5161;48.174;11.756;2023-04-06T12:31:06;11.80;40.70
10233;DHT22;5161;48.174;11.756;2023-04-06T12:33:32;11.90;41.60
10233;DHT22;5161;48.174;11.756;2023-04-06T12:35:57;12.00;41.80
10233;DHT22;5161;48.174;11.756;2023-04-06T12:38:23;12.20;42.20
10233;DHT22;5161;48.174;11.756;2023-04-06T12:40:49;12.50;42.80
10233;DHT22;5161;48.174;11.756;2023-04-06T12:43:14;12.60;41.60
10233;DHT22;5161;48.174;11.756;2023-04-06T12:45:40;12.70;41.40
10233;DHT22;5161;48.174;11.756;2023-04-06T12:48:06;12.90;42.20
10233;DHT22;5161;48.174;11.756;2023-04-06T12:50:32;13.20;42.70
10233;DHT22;5161;48.174;11.756;2023-04-06T12:52:58;13.50;42.30
10233;DHT22;5161;48.174;11.756;2023-04-06T12:55:24;13.80;41.40
10233;DHT22;5161;48.174;11.756;2023-04-06T12:57:50;14.10;41.60
10233;DHT22;5161;48.174;11.756;2023-04-06T13:00:16;14.40;41.70
10233;DHT22;5161;48.174;11.756;2023-04-06T13:02:42;14.60;39.90
10233;DHT22;5161;48.174;11.756;2023-04-06T13:05:13;14.70;41.50
10233;DHT22;5161;48.174;11.756;2023-04-06T13:07:41;14.90;40.40
10233;DHT22;5161;48.174;11.756;2023-04-06T13:10:07;14.80;40.60
10233;DHT22;5161;48.174;11.756;2023-04-06T13:12:33;14.50;40.50
10233;DHT22;5161;48.174;11.756;2023-04-06T13:14:59;14.40;39.90
10233;DHT22;5161;48.174;11.756;2023-04-06T13:17:27;14.40;40.20
10233;DHT22;5161;48.174;11.756;2023-04-06T13:19:53;14.40;40.20
10233;DHT22;5161;48.174;11.756;2023-04-06T13:22:19;14.70;40.80
10233;DHT22;5161;48.174;11.756;2023-04-06T13:24:45;15.00;40.80
10233;DHT22;5161;48.174;11.756;2023-04-06T13:27:11;15.20;40.60
10233;DHT22;5161;48.174;11.756;2023-04-06T13:29:37;15.40;40.60
10233;DHT22;5161;48.174;11.756;2023-04-06T13:32:02;15.50;39.30
10233;DHT22;5161;48.174;11.756;2023-04-06T13:34:28;15.60;40.90
10233;DHT22;5161;48.174;11.756;2023-04-06T13:36:54;15.70;40.00
10233;DHT22;5161;48.174;11.756;2023-04-06T13:39:19;15.60;38.60
10233;DHT22;5161;48.174;11.756;2023-04-06T13:41:45;15.70;39.20
10233;DHT22;5161;48.174;11.756;2023-04-06T13:44:11;15.80;39.20
10233;DHT22;5161;48.174;11.756;2023-04-06T13:46:37;15.90;39.20
10233;DHT22;5161;48.174;11.756;2023-04-06T13:49:02;15.80;37.80
10233;DHT22;5161;48.174;11.756;2023-04-06T13:51:28;15.80;37.70
10233;DHT22;5161;48.174;11.756;2023-04-06T13:53:54;15.80;37.90
10233;DHT22;5161;48.174;11.756;2023-04-06T13:56:20;15.60;37.60
10233;DHT22;5161;48.174;11.756;2023-04-06T13:58:46;15.50;38.10
10233;DHT22;5161;48.174;11.756;2023-04-06T14:01:12;15.40;37.10
10233;DHT22;5161;48.174;11.756;2023-04-06T14:03:38;15.30;37.50
10233;DHT22;5161;48.174;11.756;2023-04-06T14:06:11;15.40;37.70
10233;DHT22;5161;48.174;11.756;2023-04-06T14:08:37;15.50;37.70
10233;DHT22;5161;48.174;11.756;2023-04-06T14:11:03;15.70;38.10
10233;DHT22;5161;48.174;11.756;2023-04-06T14:13:29;15.80;37.40
10233;DHT22;5161;48.174;11.756;2023-04-06T14:15:54;16.00;38.10
10233;DHT22;5161;48.174;11.756;2023-04-06T14:18:21;15.80;37.50
10233;DHT22;5161;48.174;11.756;2023-04-06T14:20:57;15.50;37.70
10233;DHT22;5161;48.174;11.756;2023-04-06T14:23:24;15.50;37.30
10233;DHT22;5161;48.174;11.756;2023-04-06T14:26:01;15.40;37.80
10233;DHT22;5161;48.174;11.756;2023-04-06T14:28:28;15.10;37.00
10233;DHT22;5161;48.174;11.756;2023-04-06T14:30:53;15.10;37.60
10233;DHT22;5161;48.174;11.756;2023-04-06T14:33:19;15.20;37.90
10233;DHT22;5161;48.174;11.756;2023-04-06T14:35:45;15.20;36.70
10233;DHT22;5161;48.174;11.756;2023-04-06T14:38:11;15.10;37.20
10233;DHT22;5161;48.174;11.756;2023-04-06T14:40:36;14.90;37.30
10233;DHT22;5161;48.174;11.756;2023-04-06T14:43:03;14.70;36.90
10233;DHT22;5161;48.174;11.756;2023-04-06T14:45:29;14.50;36.60
10233;DHT22;5161;48.174;11.756;2023-04-06T14:47:55;14.30;37.70
10233;DHT22;5161;48.174;11.756;2023-04-06T14:50:20;14.40;38.10
10233;DHT22;5161;48.174;11.756;2023-04-06T14:52:46;14.50;38.30
10233;DHT22;5161;48.174;11.756;2023-04-06T14:55:12;14.70;38.40
10233;DHT22;5161;48.174;11.756;2023-04-06T14:57:38;14.60;37.90
10233;DHT22;5161;48.174;11.756;2023-04-06T15:00:04;14.40;38.00
10233;DHT22;5161;48.174;11.756;2023-04-06T15:02:29;14.40;38.10
10233;DHT22;5161;48.174;11.756;2023-04-06T15:04:57;14.40;38.00
10233;DHT22;5161;48.174;11.756;2023-04-06T15:07:22;14.40;38.10
10233;DHT22;5161;48.174;11.756;2023-04-06T15:09:48;14.30;38.10
10233;DHT22;5161;48.174;11.756;2023-04-06T15:12:13;14.10;37.90
10233;DHT22;5161;48.174;11.756;2023-04-06T15:14:39;13.90;37.70
10233;DHT22;5161;48.174;11.756;2023-04-06T15:17:04;13.80;37.60
10233;DHT22;5161;48.174;11.756;2023-04-06T15:19:30;13.80;37.70
10233;DHT22;5161;48.174;11.756;2023-04-06T15:21:56;13.80;37.80
10233;DHT22;5161;48.174;11.756;2023-04-06T15:24:21;13.90;38.50
10233;DHT22;5161;48.174;11.756;2023-04-06T15:26:47;14.10;37.20
10233;DHT22;5161;48.174;11.756;2023-04-06T15:29:13;14.10;37.80
10233;DHT22;5161;48.174;11.756;2023-04-06T15:31:38;14.20;37.40
10233;DHT22;5161;48.174;11.756;2023-04-06T15:34:05;14.20;37.30
10233;DHT22;5161;48.174;11.756;2023-04-06T15:36:33;14.20;37.60
10233;DHT22;5161;48.174;11.756;2023-04-06T15:38:59;14.30;37.50
10233;DHT22;5161;48.174;11.756;2023-04-06T15:41:25;14.20;36.90
10233;DHT22;5161;48.174;11.756;2023-04-06T15:43:52;14.20;37.10